sensor_id;sensor_type;location;lat;lon;timestamp;pressure;altitude;pressure_sealevel;temperature;humidity
46111;BME280;31849;55.992;37.252;2023-02-20T00:02:12;97013.81;;;-4.92;59.08
46111;BME280;31849;55.992;37.252;2023-02-20T00:07:16;97021.16;;;-5.06;58.74
46111;BME280;31849;55.992;37.252;2023-02-20T00:12:19;97015.84;;;-5.17;58.73
46111;BME280;31849;55.992;37.252;2023-02-20T00:17:24;96978.16;;;-5.44;59.15
46111;BME280;31849;55.992;37.252;2023-02-20T00:22:29;97015.25;;;-5.48;58.63
46111;BME280;31849;55.992;37.252;2023-02-20T00:27:32;97031.09;;;-5.56;59.17
46111;BME280;31849;55.992;37.252;2023-02-20T00:32:37;97026.31;;;-5.80;59.78
46111;BME280;31849;55.992;37.252;2023-02-20T00:37:41;97021.06;;;-5.90;59.54
46111;BME280;31849;55.992;37.252;2023-02-20T00:42:45;97017.38;;;-6.04;59.80
46111;BME280;31849;55.992;37.252;2023-02-20T00:47:49;97016.25;;;-6.17;60.43
46111;BME280;31849;55.992;37.252;2023-02-20T00:52:53;97012.06;;;-6.15;60.13
46111;BME280;31849;55.992;37.252;2023-02-20T00:57:56;97017.16;;;-6.13;60.08
46111;BME280;31849;55.992;37.252;2023-02-20T01:03:01;97021.41;;;-6.12;60.04
46111;BME280;31849;55.992;37.252;2023-02-20T01:08:05;97016.00;;;-6.28;59.55
46111;BME280;31849;55.992;37.252;2023-02-20T01:13:09;97014.91;;;-6.38;60.05
46111;BME280;31849;55.992;37.252;2023-02-20T01:18:14;97004.38;;;-6.55;59.82
46111;BME280;31849;55.992;37.252;2023-02-20T01:23:17;97011.38;;;-6.78;60.63
46111;BME280;31849;55.992;37.252;2023-02-20T01:28:21;97011.66;;;-6.99;60.37
46111;BME280;31849;55.992;37.252;2023-02-20T01:33:26;97018.38;;;-6.99;60.46
46111;BME280;31849;55.992;37.252;2023-02-20T01:38:29;97018.84;;;-7.13;60.36
46111;BME280;31849;55.992;37.252;2023-02-20T01:43:33;97038.13;;;-7.16;60.62
46111;BME280;31849;55.992;37.252;2023-02-20T01:48:38;97032.19;;;-7.18;60.76
46111;BME280;31849;55.992;37.252;2023-02-20T01:53:42;97029.47;;;-7.25;61.04
46111;BME280;31849;55.992;37.252;2023-02-20T01:58:47;97030.66;;;-7.12;60.36
46111;BME280;31849;55.992;37.252;2023-02-20T02:03:56;97032.28;;;-6.83;60.74
46111;BME280;31849;55.992;37.252;2023-02-20T02:09:04;97030.22;;;-6.66;59.37
46111;BME280;31849;55.992;37.252;2023-02-20T02:14:11;97041.50;;;-6.52;59.01
46111;BME280;31849;55.992;37.252;2023-02-20T02:19:29;97052.28;;;-6.26;59.09
46111;BME280;31849;55.992;37.252;2023-02-20T02:25:02;97050.13;;;-6.10;58.73
46111;BME280;31849;55.992;37.252;2023-02-20T02:41:41;97051.28;;;-5.96;59.38
46111;BME280;31849;55.992;37.252;2023-02-20T02:46:49;97058.34;;;-5.83;59.16
46111;BME280;31849;55.992;37.252;2023-02-20T02:51:58;97049.19;;;-5.77;58.48
46111;BME280;31849;55.992;37.252;2023-02-20T02:57:20;97052.84;;;-5.65;58.37
46111;BME280;31849;55.992;37.252;2023-02-20T03:02:24;97069.09;;;-5.55;58.85
46111;BME280;31849;55.992;37.252;2023-02-20T03:07:30;97064.31;;;-5.41;58.42
46111;BME280;31849;55.992;37.252;2023-02-20T03:12:41;97065.31;;;-5.72;58.70
46111;BME280;31849;55.992;37.252;2023-02-20T03:17:51;97071.22;;;-5.72;59.37
46111;BME280;31849;55.992;37.252;2023-02-20T03:22:57;97062.03;;;-5.68;59.52
46111;BME280;31849;55.992;37.252;2023-02-20T03:28:06;97056.94;;;-5.70;59.73
46111;BME280;31849;55.992;37.252;2023-02-20T03:33:15;97052.22;;;-5.54;58.63
46111;BME280;31849;55.992;37.252;2023-02-20T03:38:40;97054.84;;;-5.50;58.94
46111;BME280;31849;55.992;37.252;2023-02-20T03:44:04;97052.84;;;-5.25;58.94
46111;BME280;31849;55.992;37.252;2023-02-20T03:49:11;97046.63;;;-5.39;58.90
46111;BME280;31849;55.992;37.252;2023-02-20T03:54:15;97066.31;;;-5.26;58.21
46111;BME280;31849;55.992;37.252;2023-02-20T03:59:25;97073.00;;;-5.31;58.47
46111;BME280;31849;55.992;37.252;2023-02-20T04:04:36;97079.91;;;-5.24;58.68
46111;BME280;31849;55.992;37.252;2023-02-20T04:09:43;97079.09;;;-5.21;58.46
46111;BME280;31849;55.992;37.252;2023-02-20T04:14:51;97086.53;;;-5.29;58.65
46111;BME280;31849;55.992;37.252;2023-02-20T04:19:56;97085.56;;;-5.36;59.04
46111;BME280;31849;55.992;37.252;2023-02-20T04:25:02;97092.28;;;-5.36;58.56
46111;BME280;31849;55.992;37.252;2023-02-20T04:30:09;97094.38;;;-5.17;58.43
46111;BME280;31849;55.992;37.252;2023-02-20T04:35:16;97095.94;;;-5.23;58.72
46111;BME280;31849;55.992;37.252;2023-02-20T04:40:21;97097.47;;;-5.30;58.43
46111;BME280;31849;55.992;37.252;2023-02-20T04:45:26;97088.97;;;-5.34;58.78
46111;BME280;31849;55.992;37.252;2023-02-20T04:50:31;97093.41;;;-5.23;58.70
46111;BME280;31849;55.992;37.252;2023-02-20T04:55:35;97093.41;;;-5.23;58.16
46111;BME280;31849;55.992;37.252;2023-02-20T05:00:40;97107.41;;;-5.39;58.53
46111;BME280;31849;55.992;37.252;2023-02-20T05:05:43;97096.84;;;-5.20;58.58
46111;BME280;31849;55.992;37.252;2023-02-20T05:10:47;97097.84;;;-5.13;58.63
46111;BME280;31849;55.992;37.252;2023-02-20T05:15:52;97100.59;;;-5.02;58.61
46111;BME280;31849;55.992;37.252;2023-02-20T05:20:55;97103.13;;;-5.02;58.48
46111;BME280;31849;55.992;37.252;2023-02-20T05:26:18;97109.81;;;-5.07;57.99
46111;BME280;31849;55.992;37.252;2023-02-20T05:31:24;97106.84;;;-4.86;58.11
46111;BME280;31849;55.992;37.252;2023-02-20T05:36:27;97099.22;;;-4.88;58.08
46111;BME280;31849;55.992;37.252;2023-02-20T05:41:31;97102.56;;;-4.89;57.87
46111;BME280;31849;55.992;37.252;2023-02-20T05:46:39;97103.50;;;-4.85;58.19
46111;BME280;31849;55.992;37.252;2023-02-20T05:51:43;97109.41;;;-4.85;57.58
46111;BME280;31849;55.992;37.252;2023-02-20T05:56:47;97120.88;;;-4.61;56.92
46111;BME280;31849;55.992;37.252;2023-02-20T06:01:57;97113.25;;;-4.61;57.61
46111;BME280;31849;55.992;37.252;2023-02-20T06:07:00;97123.47;;;-4.58;56.86
46111;BME280;31849;55.992;37.252;2023-02-20T06:12:04;97130.63;;;-4.37;56.48
46111;BME280;31849;55.992;37.252;2023-02-20T06:17:09;97131.31;;;-3.98;55.91
46111;BME280;31849;55.992;37.252;2023-02-20T06:22:13;97130.91;;;-4.23;56.29
46111;BME280;31849;55.992;37.252;2023-02-20T06:27:18;97134.50;;;-4.10;55.79
46111;BME280;31849;55.992;37.252;2023-02-20T06:32:23;97137.59;;;-3.78;55.68
46111;BME280;31849;55.992;37.252;2023-02-20T06:37:26;97142.25;;;-4.01;56.07
46111;BME280;31849;55.992;37.252;2023-02-20T06:42:30;97145.59;;;-4.05;55.35
46111;BME280;31849;55.992;37.252;2023-02-20T06:47:35;97141.28;;;-4.09;55.42
46111;BME280;31849;55.992;37.252;2023-02-20T06:52:38;97150.69;;;-4.03;55.35
46111;BME280;31849;55.992;37.252;2023-02-20T06:57:42;97157.88;;;-3.79;55.08
46111;BME280;31849;55.992;37.252;2023-02-20T07:02:47;97166.41;;;-3.76;55.11
46111;BME280;31849;55.992;37.252;2023-02-20T07:07:50;97155.47;;;-3.72;54.56
46111;BME280;31849;55.992;37.252;2023-02-20T07:12:54;97161.78;;;-3.48;54.13
46111;BME280;31849;55.992;37.252;2023-02-20T07:17:59;97168.44;;;-3.56;54.42
46111;BME280;31849;55.992;37.252;2023-02-20T07:23:02;97165.38;;;-3.35;53.76
46111;BME280;31849;55.992;37.252;2023-02-20T07:28:06;97166.91;;;-3.45;53.44
46111;BME280;31849;55.992;37.252;2023-02-20T07:33:12;97173.13;;;-3.27;53.15
46111;BME280;31849;55.992;37.252;2023-02-20T07:38:16;97172.09;;;-2.80;52.71
46111;BME280;31849;55.992;37.252;2023-02-20T07:43:19;97173.28;;;-3.15;52.92
46111;BME280;31849;55.992;37.252;2023-02-20T07:48:24;97181.94;;;-3.04;52.49
46111;BME280;31849;55.992;37.252;2023-02-20T07:53:27;97186.72;;;-3.22;52.50
46111;BME280;31849;55.992;37.252;2023-02-20T07:58:31;97187.84;;;-3.60;53.44
46111;BME280;31849;55.992;37.252;2023-02-20T08:03:36;97186.19;;;-3.03;52.23
46111;BME280;31849;55.992;37.252;2023-02-20T08:08:39;97186.34;;;-2.92;52.15
46111;BME280;31849;55.992;37.252;2023-02-20T08:13:43;97191.84;;;-2.61;51.59
46111;BME280;31849;55.992;37.252;2023-02-20T08:18:48;97190.72;;;-2.11;51.12
46111;BME280;31849;55.992;37.252;2023-02-20T08:23:52;97177.69;;;-1.57;49.93
46111;BME280;31849;55.992;37.252;2023-02-20T08:28:56;97193.13;;;-1.40;49.24
46111;BME280;31849;55.992;37.252;2023-02-20T08:34:01;97194.94;;;-1.26;48.75
46111;BME280;31849;55.992;37.252;2023-02-20T08:39:04;97197.66;;;-1.04;47.75
46111;BME280;31849;55.992;37.252;2023-02-20T08:44:07;97212.16;;;-0.94;47.75
46111;BME280;31849;55.992;37.252;2023-02-20T08:49:12;97208.91;;;-0.76;47.46
46111;BME280;31849;55.992;37.252;2023-02-20T08:54:18;97199.59;;;-0.63;47.06
46111;BME280;31849;55.992;37.252;2023-02-20T08:59:21;97203.94;;;-0.45;46.80
46111;BME280;31849;55.992;37.252;2023-02-20T09:04:26;97194.78;;;-0.03;46.36
46111;BME280;31849;55.992;37.252;2023-02-20T09:09:29;97199.88;;;-0.03;45.49
46111;BME280;31849;55.992;37.252;2023-02-20T09:14:33;97211.72;;;-0.28;45.65
46111;BME280;31849;55.992;37.252;2023-02-20T09:19:38;97219.34;;;-0.31;45.75
46111;BME280;31849;55.992;37.252;2023-02-20T09:24:41;97222.81;;;-0.15;46.05
46111;BME280;31849;55.992;37.252;2023-02-20T09:29:45;97210.03;;;-0.13;46.19
46111;BME280;31849;55.992;37.252;2023-02-20T09:34:50;97203.22;;;-0.22;45.36
46111;BME280;31849;55.992;37.252;2023-02-20T09:39:53;97204.84;;;-0.41;45.52
46111;BME280;31849;55.992;37.252;2023-02-20T09:45:03;97202.25;;;-0.50;45.16
46111;BME280;31849;55.992;37.252;2023-02-20T09:50:13;97202.16;;;-0.66;45.94
46111;BME280;31849;55.992;37.252;2023-02-20T09:55:20;97194.88;;;0.33;44.29
46111;BME280;31849;55.992;37.252;2023-02-20T10:00:28;97202.53;;;1.21;42.73
46111;BME280;31849;55.992;37.252;2023-02-20T10:05:35;97202.56;;;0.67;43.00
46111;BME280;31849;55.992;37.252;2023-02-20T10:10:39;97198.06;;;-0.30;45.01
46111;BME280;31849;55.992;37.252;2023-02-20T10:15:48;97192.94;;;-0.38;44.81
46111;BME280;31849;55.992;37.252;2023-02-20T10:21:02;97199.06;;;0.05;44.19
46111;BME280;31849;55.992;37.252;2023-02-20T10:26:12;97183.75;;;0.15;43.63
46111;BME280;31849;55.992;37.252;2023-02-20T10:31:27;97177.75;;;0.06;43.93
46111;BME280;31849;55.992;37.252;2023-02-20T10:36:39;97192.16;;;-0.18;44.09
46111;BME280;31849;55.992;37.252;2023-02-20T10:41:48;97196.22;;;-0.60;44.38
46111;BME280;31849;55.992;37.252;2023-02-20T10:47:00;97165.31;;;-1.10;43.96
46111;BME280;31849;55.992;37.252;2023-02-20T10:52:09;97189.31;;;-0.81;44.30
46111;BME280;31849;55.992;37.252;2023-02-20T10:57:35;97202.16;;;-0.66;44.06
46111;BME280;31849;55.992;37.252;2023-02-20T11:02:43;97196.28;;;-0.43;44.01
46111;BME280;31849;55.992;37.252;2023-02-20T11:07:49;97193.69;;;-0.59;44.11
46111;BME280;31849;55.992;37.252;2023-02-20T11:12:56;97194.41;;;-0.84;44.04
46111;BME280;31849;55.992;37.252;2023-02-20T11:18:03;97198.53;;;-1.02;44.91
46111;BME280;31849;55.992;37.252;2023-02-20T11:23:35;97197.00;;;-0.75;44.41
46111;BME280;31849;55.992;37.252;2023-02-20T11:28:39;97203.22;;;-0.22;43.99
46111;BME280;31849;55.992;37.252;2023-02-20T11:33:44;97201.53;;;-0.14;43.45
46111;BME280;31849;55.992;37.252;2023-02-20T11:38:58;97203.97;;;-0.42;44.12
46111;BME280;31849;55.992;37.252;2023-02-20T11:44:15;97208.34;;;-0.19;43.61
46111;BME280;31849;55.992;37.252;2023-02-20T11:49:25;97206.56;;;-0.36;43.81
46111;BME280;31849;55.992;37.252;2023-02-20T11:54:30;97211.56;;;-0.54;44.23
46111;BME280;31849;55.992;37.252;2023-02-20T11:59:35;97209.91;;;-0.47;44.52
46111;BME280;31849;55.992;37.252;2023-02-20T12:04:38;97202.28;;;-0.43;43.77
46111;BME280;31849;55.992;37.252;2023-02-20T12:09:44;97204.81;;;-0.47;43.89
46111;BME280;31849;55.992;37.252;2023-02-20T12:14:49;97197.19;;;-0.38;43.37
46111;BME280;31849;55.992;37.252;2023-02-20T12:19:59;97195.47;;;-0.42;43.46
46111;BME280;31849;55.992;37.252;2023-02-20T12:25:18;97198.91;;;-0.36;42.89
46111;BME280;31849;55.992;37.252;2023-02-20T12:30:34;97198.84;;;-0.43;43.36
46111;BME280;31849;55.992;37.252;2023-02-20T12:35:48;97210.53;;;-0.85;43.82
46111;BME280;31849;55.992;37.252;2023-02-20T12:41:12;97208.78;;;-0.94;44.13
46111;BME280;31849;55.992;37.252;2023-02-20T12:46:23;97217.13;;;-1.15;44.72
46111;BME280;31849;55.992;37.252;2023-02-20T12:51:34;97211.88;;;-1.32;44.88
46111;BME280;31849;55.992;37.252;2023-02-20T12:56:53;97210.91;;;-1.50;44.86
46111;BME280;31849;55.992;37.252;2023-02-20T13:02:12;97200.06;;;-2.13;45.90
46111;BME280;31849;55.992;37.252;2023-02-20T13:07:20;97214.19;;;-2.37;46.03
46111;BME280;31849;55.992;37.252;2023-02-20T13:12:28;97201.88;;;-2.70;46.52
46111;BME280;31849;55.992;37.252;2023-02-20T13:17:38;97213.34;;;-2.98;47.44
46111;BME280;31849;55.992;37.252;2023-02-20T13:22:57;97210.59;;;-3.14;47.35
46111;BME280;31849;55.992;37.252;2023-02-20T13:28:20;97213.13;;;-3.14;46.84
46111;BME280;31849;55.992;37.252;2023-02-20T13:33:27;97211.09;;;-3.37;47.27
46111;BME280;31849;55.992;37.252;2023-02-20T13:38:31;97208.34;;;-3.47;47.89
46111;BME280;31849;55.992;37.252;2023-02-20T13:43:36;97204.41;;;-3.30;47.31
46111;BME280;31849;55.992;37.252;2023-02-20T13:48:40;97211.63;;;-3.03;47.39
46111;BME280;31849;55.992;37.252;2023-02-20T13:53:47;97209.06;;;-3.04;47.19
46111;BME280;31849;55.992;37.252;2023-02-20T13:58:56;97215.72;;;-3.11;47.31
46111;BME280;31849;55.992;37.252;2023-02-20T14:04:03;97228.03;;;-3.36;47.46
46111;BME280;31849;55.992;37.252;2023-02-20T14:09:08;97220.81;;;-3.63;48.33
46111;BME280;31849;55.992;37.252;2023-02-20T14:14:23;97218.72;;;-3.85;48.68
46111;BME280;31849;55.992;37.252;2023-02-20T14:19:28;97220.78;;;-4.10;48.83
46111;BME280;31849;55.992;37.252;2023-02-20T14:24:32;97221.94;;;-4.37;48.82
46111;BME280;31849;55.992;37.252;2023-02-20T14:29:36;97235.00;;;-4.61;49.87
46111;BME280;31849;55.992;37.252;2023-02-20T14:34:46;97233.53;;;-4.89;50.24
46111;BME280;31849;55.992;37.252;2023-02-20T14:40:00;97243.44;;;-5.00;50.33
46111;BME280;31849;55.992;37.252;2023-02-20T14:45:13;97247.44;;;-5.08;49.92
46111;BME280;31849;55.992;37.252;2023-02-20T14:50:20;97248.09;;;-5.17;50.90
46111;BME280;31849;55.992;37.252;2023-02-20T14:55:24;97244.28;;;-5.35;50.40
46111;BME280;31849;55.992;37.252;2023-02-20T15:00:35;97250.88;;;-5.41;50.70
46111;BME280;31849;55.992;37.252;2023-02-20T15:05:40;97246.44;;;-5.50;51.20
46111;BME280;31849;55.992;37.252;2023-02-20T15:10:47;97242.38;;;-5.43;50.70
46111;BME280;31849;55.992;37.252;2023-02-20T15:16:04;97247.34;;;-5.48;51.12
46111;BME280;31849;55.992;37.252;2023-02-20T15:21:09;97247.88;;;-5.60;51.83
46111;BME280;31849;55.992;37.252;2023-02-20T15:26:28;97241.38;;;-5.50;52.04
46111;BME280;31849;55.992;37.252;2023-02-20T15:31:34;97234.56;;;-5.53;52.21
46111;BME280;31849;55.992;37.252;2023-02-20T15:36:37;97237.56;;;-5.68;52.37
46111;BME280;31849;55.992;37.252;2023-02-20T15:41:42;97234.84;;;-5.75;51.98
46111;BME280;31849;55.992;37.252;2023-02-20T15:46:47;97236.00;;;-5.64;51.83
46111;BME280;31849;55.992;37.252;2023-02-20T15:51:50;97243.41;;;-5.70;52.35
46111;BME280;31849;55.992;37.252;2023-02-20T15:57:02;97239.69;;;-5.85;52.19
46111;BME280;31849;55.992;37.252;2023-02-20T16:02:12;97234.69;;;-5.81;52.07
46111;BME280;31849;55.992;37.252;2023-02-20T16:07:17;97229.44;;;-5.89;52.14
46111;BME280;31849;55.992;37.252;2023-02-20T16:12:25;97226.66;;;-5.98;52.43
46111;BME280;31849;55.992;37.252;2023-02-20T16:17:33;97233.25;;;-6.05;52.78
46111;BME280;31849;55.992;37.252;2023-02-20T16:22:37;97233.53;;;-6.26;53.12
46111;BME280;31849;55.992;37.252;2023-02-20T16:27:41;97227.22;;;-6.41;52.84
46111;BME280;31849;55.992;37.252;2023-02-20T16:32:46;97229.91;;;-6.65;53.22
46111;BME280;31849;55.992;37.252;2023-02-20T16:37:50;97220.22;;;-6.80;53.68
46111;BME280;31849;55.992;37.252;2023-02-20T16:42:54;97215.88;;;-7.11;53.73
46111;BME280;31849;55.992;37.252;2023-02-20T16:47:59;97209.22;;;-7.09;54.00
46111;BME280;31849;55.992;37.252;2023-02-20T16:53:03;97199.56;;;-7.22;53.40
46111;BME280;31849;55.992;37.252;2023-02-20T16:58:07;97200.41;;;-7.22;53.64
46111;BME280;31849;55.992;37.252;2023-02-20T17:03:12;97190.59;;;-7.40;53.99
46111;BME280;31849;55.992;37.252;2023-02-20T17:08:15;97188.75;;;-7.46;53.91
46111;BME280;31849;55.992;37.252;2023-02-20T17:13:19;97183.31;;;-7.58;54.78
46111;BME280;31849;55.992;37.252;2023-02-20T17:18:24;97180.78;;;-7.58;54.22
46111;BME280;31849;55.992;37.252;2023-02-20T17:23:27;97174.28;;;-7.77;54.36
46111;BME280;31849;55.992;37.252;2023-02-20T17:28:31;97163.91;;;-7.86;54.12
46111;BME280;31849;55.992;37.252;2023-02-20T17:33:36;97151.00;;;-7.96;55.14
46111;BME280;31849;55.992;37.252;2023-02-20T17:38:41;97154.09;;;-8.28;55.05
46111;BME280;31849;55.992;37.252;2023-02-20T17:43:45;97153.63;;;-8.42;55.08
46111;BME280;31849;55.992;37.252;2023-02-20T17:48:50;97150.00;;;-8.51;55.26
46111;BME280;31849;55.992;37.252;2023-02-20T17:53:53;97151.34;;;-8.60;55.19
46111;BME280;31849;55.992;37.252;2023-02-20T17:58:57;97139.13;;;-8.74;55.16
46111;BME280;31849;55.992;37.252;2023-02-20T18:04:03;97138.91;;;-8.80;54.70
46111;BME280;31849;55.992;37.252;2023-02-20T18:09:07;97143.72;;;-8.86;55.27
46111;BME280;31849;55.992;37.252;2023-02-20T18:14:11;97135.13;;;-8.91;55.02
46111;BME280;31849;55.992;37.252;2023-02-20T18:19:16;97132.25;;;-9.02;55.43
46111;BME280;31849;55.992;37.252;2023-02-20T18:24:22;97122.09;;;-9.26;56.27
46111;BME280;31849;55.992;37.252;2023-02-20T18:29:26;97126.91;;;-9.32;55.82
46111;BME280;31849;55.992;37.252;2023-02-20T18:34:32;97120.91;;;-9.59;56.71
46111;BME280;31849;55.992;37.252;2023-02-20T18:39:35;97117.28;;;-9.65;55.73
46111;BME280;31849;55.992;37.252;2023-02-20T18:44:39;97119.50;;;-9.73;56.32
46111;BME280;31849;55.992;37.252;2023-02-20T18:49:46;97117.66;;;-9.77;56.48
46111;BME280;31849;55.992;37.252;2023-02-20T18:54:50;97085.25;;;-9.92;56.53
46111;BME280;31849;55.992;37.252;2023-02-20T18:59:53;97101.63;;;-9.81;56.00
46111;BME280;31849;55.992;37.252;2023-02-20T19:04:58;97097.50;;;-9.79;56.13
46111;BME280;31849;55.992;37.252;2023-02-20T19:10:02;97096.66;;;-9.79;56.41
46111;BME280;31849;55.992;37.252;2023-02-20T19:15:06;97082.09;;;-9.86;56.20
46111;BME280;31849;55.992;37.252;2023-02-20T19:20:17;97086.63;;;-10.00;57.58
46111;BME280;31849;55.992;37.252;2023-02-20T19:25:24;97087.50;;;-9.98;57.07
46111;BME280;31849;55.992;37.252;2023-02-20T19:30:28;97034.91;;;-10.37;56.98
46111;BME280;31849;55.992;37.252;2023-02-20T19:35:33;97082.00;;;-10.11;57.60
46111;BME280;31849;55.992;37.252;2023-02-20T19:40:36;97070.47;;;-10.05;57.55
46111;BME280;31849;55.992;37.252;2023-02-20T19:45:40;97058.03;;;-10.02;56.61
46111;BME280;31849;55.992;37.252;2023-02-20T19:50:45;97056.19;;;-9.85;56.86
46111;BME280;31849;55.992;37.252;2023-02-20T19:55:48;97046.19;;;-10.05;56.45
46111;BME280;31849;55.992;37.252;2023-02-20T20:00:55;97043.38;;;-10.13;57.26
46111;BME280;31849;55.992;37.252;2023-02-20T20:06:00;97033.22;;;-10.16;56.49
46111;BME280;31849;55.992;37.252;2023-02-20T20:11:04;97039.34;;;-10.30;56.81
46111;BME280;31849;55.992;37.252;2023-02-20T20:16:08;97027.44;;;-10.36;57.50
46111;BME280;31849;55.992;37.252;2023-02-20T20:21:13;97019.91;;;-10.36;56.90
46111;BME280;31849;55.992;37.252;2023-02-20T20:26:17;97021.03;;;-10.28;56.54
46111;BME280;31849;55.992;37.252;2023-02-20T20:31:21;97004.94;;;-10.10;56.99
46111;BME280;31849;55.992;37.252;2023-02-20T20:36:27;97003.06;;;-9.93;56.85
46111;BME280;31849;55.992;37.252;2023-02-20T20:41:30;96994.06;;;-9.88;56.62
46111;BME280;31849;55.992;37.252;2023-02-20T20:46:45;96987.41;;;-9.86;56.40
46111;BME280;31849;55.992;37.252;2023-02-20T20:51:50;96986.22;;;-9.96;55.92
46111;BME280;31849;55.992;37.252;2023-02-20T20:56:54;96971.81;;;-10.22;56.78
46111;BME280;31849;55.992;37.252;2023-02-20T21:01:57;96975.41;;;-10.38;56.66
46111;BME280;31849;55.992;37.252;2023-02-20T21:07:02;96964.63;;;-10.57;57.22
46111;BME280;31849;55.992;37.252;2023-02-20T21:12:06;96958.41;;;-10.67;56.61
46111;BME280;31849;55.992;37.252;2023-02-20T21:17:10;96954.84;;;-10.72;57.27
46111;BME280;31849;55.992;37.252;2023-02-20T21:22:16;96950.69;;;-10.71;56.71
46111;BME280;31849;55.992;37.252;2023-02-20T21:27:19;96947.88;;;-10.79;57.17
46111;BME280;31849;55.992;37.252;2023-02-20T21:32:22;96943.75;;;-10.77;56.71
46111;BME280;31849;55.992;37.252;2023-02-20T21:37:29;96931.69;;;-10.86;57.13
46111;BME280;31849;55.992;37.252;2023-02-20T21:42:35;96933.13;;;-10.71;57.14
46111;BME280;31849;55.992;37.252;2023-02-20T21:47:58;96929.06;;;-10.68;56.73
46111;BME280;31849;55.992;37.252;2023-02-20T21:53:03;96920.31;;;-10.99;57.15
46111;BME280;31849;55.992;37.252;2023-02-20T21:58:07;96927.28;;;-10.91;57.12
46111;BME280;31849;55.992;37.252;2023-02-20T22:03:15;96926.81;;;-10.83;56.79
46111;BME280;31849;55.992;37.252;2023-02-20T22:08:19;96920.13;;;-10.82;56.37
46111;BME280;31849;55.992;37.252;2023-02-20T22:13:40;96912.16;;;-10.93;56.40
46111;BME280;31849;55.992;37.252;2023-02-20T22:19:01;96902.41;;;-11.27;56.70
46111;BME280;31849;55.992;37.252;2023-02-20T22:24:23;96899.72;;;-11.32;57.47
46111;BME280;31849;55.992;37.252;2023-02-20T22:29:44;96884.91;;;-11.47;57.42
46111;BME280;31849;55.992;37.252;2023-02-20T22:35:06;96885.44;;;-11.74;57.33
46111;BME280;31849;55.992;37.252;2023-02-20T22:40:28;96879.13;;;-11.85;58.14
46111;BME280;31849;55.992;37.252;2023-02-20T22:45:49;96878.69;;;-11.96;57.81
46111;BME280;31849;55.992;37.252;2023-02-20T22:51:10;96873.97;;;-11.88;57.93
46111;BME280;31849;55.992;37.252;2023-02-20T22:56:34;96879.19;;;-11.83;57.43
46111;BME280;31849;55.992;37.252;2023-02-20T23:01:55;96875.81;;;-11.84;57.95
46111;BME280;31849;55.992;37.252;2023-02-20T23:07:15;96872.09;;;-11.94;57.50
46111;BME280;31849;55.992;37.252;2023-02-20T23:12:37;96866.16;;;-11.96;57.17
46111;BME280;31849;55.992;37.252;2023-02-20T23:17:58;96865.38;;;-11.95;57.61
46111;BME280;31849;55.992;37.252;2023-02-20T23:23:19;96838.66;;;-12.14;57.84
46111;BME280;31849;55.992;37.252;2023-02-20T23:28:41;96846.06;;;-12.17;57.61
46111;BME280;31849;55.992;37.252;2023-02-20T23:34:03;96844.53;;;-12.13;57.06
46111;BME280;31849;55.992;37.252;2023-02-20T23:39:23;96843.16;;;-12.07;57.04
46111;BME280;31849;55.992;37.252;2023-02-20T23:44:45;96835.66;;;-11.86;56.64
46111;BME280;31849;55.992;37.252;2023-02-20T23:50:07;96830.38;;;-11.93;56.91
46111;BME280;31849;55.992;37.252;2023-02-20T23:55:28;96829.78;;;-11.86;56.95
